sensor_id;sensor_type;location;lat;lon;timestamp;temperature;humidity
14053;DHT22;7101;51.600;7.310;2022-12-26T00:01:52;10.90;99.90
14053;DHT22;7101;51.600;7.310;2022-12-26T00:04:20;11.00;99.90
14053;DHT22;7101;51.600;7.310;2022-12-26T00:06:47;11.00;99.90
14053;DHT22;7101;51.600;7.310;2022-12-26T00:09:15;11.00;99.90
14053;DHT22;7101;51.600;7.310;2022-12-26T00:11:42;10.90;99.90
14053;DHT22;7101;51.600;7.310;2022-12-26T00:14:11;10.90;99.90
14053;DHT22;7101;51.600;7.310;2022-12-26T00:16:40;10.90;99.90
14053;DHT22;7101;51.600;7.310;2022-12-26T00:19:08;10.90;99.90
14053;DHT22;7101;51.600;7.310;2022-12-26T00:21:35;10.90;99.90
14053;DHT22;7101;51.600;7.310;2022-12-26T00:24:03;10.90;99.90
14053;DHT22;7101;51.600;7.310;2022-12-26T00:26:31;10.90;99.90
14053;DHT22;7101;51.600;7.310;2022-12-26T00:28:59;10.80;99.90
14053;DHT22;7101;51.600;7.310;2022-12-26T00:31:27;10.80;99.90
14053;DHT22;7101;51.600;7.310;2022-12-26T00:33:54;10.70;99.90
14053;DHT22;7101;51.600;7.310;2022-12-26T00:36:25;10.70;99.90
14053;DHT22;7101;51.600;7.310;2022-12-26T00:38:54;10.70;99.90
14053;DHT22;7101;51.600;7.310;2022-12-26T00:41:21;10.70;99.90
14053;DHT22;7101;51.600;7.310;2022-12-26T00:43:48;10.70;99.90
14053;DHT22;7101;51.600;7.310;2022-12-26T00:46:16;10.60;99.90
14053;DHT22;7101;51.600;7.310;2022-12-26T00:48:43;10.60;99.90
14053;DHT22;7101;51.600;7.310;2022-12-26T00:51:10;10.60;99.90
14053;DHT22;7101;51.600;7.310;2022-12-26T00:53:38;10.60;99.90
14053;DHT22;7101;51.600;7.310;2022-12-26T00:56:06;10.50;99.90
14053;DHT22;7101;51.600;7.310;2022-12-26T00:58:33;10.60;99.90
14053;DHT22;7101;51.600;7.310;2022-12-26T01:01:09;10.60;99.90
14053;DHT22;7101;51.600;7.310;2022-12-26T01:03:36;10.50;99.90
14053;DHT22;7101;51.600;7.310;2022-12-26T01:06:03;10.50;99.90
14053;DHT22;7101;51.600;7.310;2022-12-26T01:08:30;10.50;99.90
14053;DHT22;7101;51.600;7.310;2022-12-26T01:11:02;10.50;99.90
14053;DHT22;7101;51.600;7.310;2022-12-26T01:13:29;10.50;99.90
14053;DHT22;7101;51.600;7.310;2022-12-26T01:15:56;10.40;99.90
14053;DHT22;7101;51.600;7.310;2022-12-26T01:18:23;10.50;99.90
14053;DHT22;7101;51.600;7.310;2022-12-26T01:20:49;10.40;99.90
14053;DHT22;7101;51.600;7.310;2022-12-26T01:23:16;10.50;99.90
14053;DHT22;7101;51.600;7.310;2022-12-26T01:25:43;10.50;99.90
14053;DHT22;7101;51.600;7.310;2022-12-26T01:28:11;10.50;99.90
14053;DHT22;7101;51.600;7.310;2022-12-26T01:30:39;10.50;99.90
14053;DHT22;7101;51.600;7.310;2022-12-26T01:33:06;10.50;99.90
14053;DHT22;7101;51.600;7.310;2022-12-26T01:35:33;10.50;99.90
14053;DHT22;7101;51.600;7.310;2022-12-26T01:37:59;10.50;99.90
14053;DHT22;7101;51.600;7.310;2022-12-26T01:40:26;10.50;99.90
14053;DHT22;7101;51.600;7.310;2022-12-26T01:42:53;10.50;99.90
14053;DHT22;7101;51.600;7.310;2022-12-26T01:45:26;10.50;99.90
14053;DHT22;7101;51.600;7.310;2022-12-26T01:47:58;10.50;99.90
14053;DHT22;7101;51.600;7.310;2022-12-26T01:50:31;10.50;99.90
14053;DHT22;7101;51.600;7.310;2022-12-26T01:53:01;10.50;99.90
14053;DHT22;7101;51.600;7.310;2022-12-26T01:55:29;10.50;99.90
14053;DHT22;7101;51.600;7.310;2022-12-26T01:58:02;10.50;99.90
14053;DHT22;7101;51.600;7.310;2022-12-26T02:00:32;10.50;99.90
14053;DHT22;7101;51.600;7.310;2022-12-26T02:03:02;10.60;99.90
14053;DHT22;7101;51.600;7.310;2022-12-26T02:05:48;10.60;99.90
14053;DHT22;7101;51.600;7.310;2022-12-26T02:08:20;10.50;99.90
14053;DHT22;7101;51.600;7.310;2022-12-26T02:10:51;10.50;99.90
14053;DHT22;7101;51.600;7.310;2022-12-26T02:13:20;10.50;99.90
14053;DHT22;7101;51.600;7.310;2022-12-26T02:15:49;10.50;99.90
14053;DHT22;7101;51.600;7.310;2022-12-26T02:18:15;10.50;99.90
14053;DHT22;7101;51.600;7.310;2022-12-26T02:20:54;10.50;99.90
14053;DHT22;7101;51.600;7.310;2022-12-26T02:23:47;10.50;99.90
14053;DHT22;7101;51.600;7.310;2022-12-26T02:32:23;10.40;99.90
14053;DHT22;7101;51.600;7.310;2022-12-26T02:34:59;10.40;99.90
14053;DHT22;7101;51.600;7.310;2022-12-26T02:37:41;10.40;99.90
14053;DHT22;7101;51.600;7.310;2022-12-26T02:40:31;10.30;99.90
14053;DHT22;7101;51.600;7.310;2022-12-26T02:43:05;10.30;99.90
14053;DHT22;7101;51.600;7.310;2022-12-26T02:45:39;10.30;99.90
14053;DHT22;7101;51.600;7.310;2022-12-26T02:48:33;10.30;99.90
14053;DHT22;7101;51.600;7.310;2022-12-26T02:51:10;10.30;99.90
14053;DHT22;7101;51.600;7.310;2022-12-26T02:54:05;10.30;99.90
14053;DHT22;7101;51.600;7.310;2022-12-26T02:56:57;10.30;99.90
14053;DHT22;7101;51.600;7.310;2022-12-26T02:59:47;10.30;99.90
14053;DHT22;7101;51.600;7.310;2022-12-26T03:02:37;10.30;99.90
14053;DHT22;7101;51.600;7.310;2022-12-26T03:05:28;10.30;99.90
14053;DHT22;7101;51.600;7.310;2022-12-26T03:08:20;10.30;99.90
14053;DHT22;7101;51.600;7.310;2022-12-26T03:11:05;10.30;99.90
14053;DHT22;7101;51.600;7.310;2022-12-26T03:13:50;10.30;99.90
14053;DHT22;7101;51.600;7.310;2022-12-26T03:16:19;10.30;99.90
14053;DHT22;7101;51.600;7.310;2022-12-26T03:19:07;10.40;99.90
14053;DHT22;7101;51.600;7.310;2022-12-26T03:21:40;10.30;99.90
14053;DHT22;7101;51.600;7.310;2022-12-26T03:24:09;10.40;99.90
14053;DHT22;7101;51.600;7.310;2022-12-26T03:26:41;10.40;99.90
14053;DHT22;7101;51.600;7.310;2022-12-26T03:29:13;10.40;99.90
14053;DHT22;7101;51.600;7.310;2022-12-26T03:31:59;10.40;99.90
14053;DHT22;7101;51.600;7.310;2022-12-26T03:34:26;10.30;99.90
14053;DHT22;7101;51.600;7.310;2022-12-26T03:37:12;10.30;99.90
14053;DHT22;7101;51.600;7.310;2022-12-26T03:39:48;10.30;99.90
14053;DHT22;7101;51.600;7.310;2022-12-26T03:42:37;10.30;99.90
14053;DHT22;7101;51.600;7.310;2022-12-26T03:45:29;10.30;99.90
14053;DHT22;7101;51.600;7.310;2022-12-26T03:48:20;10.30;99.90
14053;DHT22;7101;51.600;7.310;2022-12-26T03:51:10;10.30;99.90
14053;DHT22;7101;51.600;7.310;2022-12-26T03:54:03;10.30;99.90
14053;DHT22;7101;51.600;7.310;2022-12-26T03:56:53;10.30;99.90
14053;DHT22;7101;51.600;7.310;2022-12-26T03:59:42;10.30;99.90
14053;DHT22;7101;51.600;7.310;2022-12-26T04:02:29;10.30;99.90
14053;DHT22;7101;51.600;7.310;2022-12-26T04:05:16;10.20;99.90
14053;DHT22;7101;51.600;7.310;2022-12-26T04:08:05;10.20;99.90
14053;DHT22;7101;51.600;7.310;2022-12-26T04:10:55;10.20;99.90
14053;DHT22;7101;51.600;7.310;2022-12-26T04:13:48;10.20;99.90
14053;DHT22;7101;51.600;7.310;2022-12-26T04:16:37;10.10;99.90
14053;DHT22;7101;51.600;7.310;2022-12-26T04:19:38;10.10;99.90
14053;DHT22;7101;51.600;7.310;2022-12-26T04:22:12;10.10;99.90
14053;DHT22;7101;51.600;7.310;2022-12-26T04:25:01;10.20;99.90
14053;DHT22;7101;51.600;7.310;2022-12-26T04:27:49;10.10;99.90
14053;DHT22;7101;51.600;7.310;2022-12-26T04:30:35;10.00;99.90
14053;DHT22;7101;51.600;7.310;2022-12-26T04:33:25;10.10;99.90
14053;DHT22;7101;51.600;7.310;2022-12-26T04:36:16;10.00;99.90
14053;DHT22;7101;51.600;7.310;2022-12-26T04:39:05;10.00;99.90
14053;DHT22;7101;51.600;7.310;2022-12-26T04:41:54;10.00;99.90
14053;DHT22;7101;51.600;7.310;2022-12-26T04:44:41;9.90;99.90
14053;DHT22;7101;51.600;7.310;2022-12-26T04:47:09;9.80;99.90
14053;DHT22;7101;51.600;7.310;2022-12-26T04:49:41;9.80;99.90
14053;DHT22;7101;51.600;7.310;2022-12-26T04:52:25;9.70;99.90
14053;DHT22;7101;51.600;7.310;2022-12-26T04:55:13;9.70;99.90
14053;DHT22;7101;51.600;7.310;2022-12-26T04:57:41;9.70;99.90
14053;DHT22;7101;51.600;7.310;2022-12-26T05:00:11;9.70;99.90
14053;DHT22;7101;51.600;7.310;2022-12-26T05:02:38;9.80;99.90
14053;DHT22;7101;51.600;7.310;2022-12-26T05:05:22;9.80;99.90
14053;DHT22;7101;51.600;7.310;2022-12-26T05:08:23;9.80;99.90
14053;DHT22;7101;51.600;7.310;2022-12-26T05:11:08;9.80;99.90
14053;DHT22;7101;51.600;7.310;2022-12-26T05:13:35;9.80;99.90
14053;DHT22;7101;51.600;7.310;2022-12-26T05:16:05;9.90;99.90
14053;DHT22;7101;51.600;7.310;2022-12-26T05:18:50;9.90;99.90
14053;DHT22;7101;51.600;7.310;2022-12-26T05:21:34;9.90;99.90
14053;DHT22;7101;51.600;7.310;2022-12-26T05:24:18;9.90;99.90
14053;DHT22;7101;51.600;7.310;2022-12-26T05:27:03;9.80;99.90
14053;DHT22;7101;51.600;7.310;2022-12-26T05:29:47;9.80;99.90
14053;DHT22;7101;51.600;7.310;2022-12-26T05:32:15;9.80;99.90
14053;DHT22;7101;51.600;7.310;2022-12-26T05:35:00;9.80;99.90
14053;DHT22;7101;51.600;7.310;2022-12-26T05:37:26;9.90;99.90
14053;DHT22;7101;51.600;7.310;2022-12-26T05:39:53;9.80;99.90
14053;DHT22;7101;51.600;7.310;2022-12-26T05:42:20;9.80;99.90
14053;DHT22;7101;51.600;7.310;2022-12-26T05:44:47;9.80;99.90
14053;DHT22;7101;51.600;7.310;2022-12-26T05:47:15;9.80;99.90
14053;DHT22;7101;51.600;7.310;2022-12-26T05:49:41;9.90;99.90
14053;DHT22;7101;51.600;7.310;2022-12-26T05:52:08;9.80;99.90
14053;DHT22;7101;51.600;7.310;2022-12-26T05:54:35;9.80;99.90
14053;DHT22;7101;51.600;7.310;2022-12-26T05:57:02;9.70;99.90
14053;DHT22;7101;51.600;7.310;2022-12-26T05:59:29;9.80;99.90
14053;DHT22;7101;51.600;7.310;2022-12-26T06:01:56;9.80;99.90
14053;DHT22;7101;51.600;7.310;2022-12-26T06:04:24;9.70;99.90
14053;DHT22;7101;51.600;7.310;2022-12-26T06:06:51;9.70;99.90
14053;DHT22;7101;51.600;7.310;2022-12-26T06:09:21;9.70;99.90
14053;DHT22;7101;51.600;7.310;2022-12-26T06:11:47;9.70;99.90
14053;DHT22;7101;51.600;7.310;2022-12-26T06:14:14;9.70;99.90
14053;DHT22;7101;51.600;7.310;2022-12-26T06:16:41;9.70;99.90
14053;DHT22;7101;51.600;7.310;2022-12-26T06:19:09;9.70;99.90
14053;DHT22;7101;51.600;7.310;2022-12-26T06:21:37;9.70;99.90
14053;DHT22;7101;51.600;7.310;2022-12-26T06:24:05;9.60;99.90
14053;DHT22;7101;51.600;7.310;2022-12-26T06:26:32;9.60;99.90
14053;DHT22;7101;51.600;7.310;2022-12-26T06:28:59;9.50;99.90
14053;DHT22;7101;51.600;7.310;2022-12-26T06:31:25;9.50;99.90
14053;DHT22;7101;51.600;7.310;2022-12-26T06:33:55;9.50;99.90
14053;DHT22;7101;51.600;7.310;2022-12-26T06:36:28;9.40;99.90
14053;DHT22;7101;51.600;7.310;2022-12-26T06:38:57;9.40;99.90
14053;DHT22;7101;51.600;7.310;2022-12-26T06:41:25;9.40;99.90
14053;DHT22;7101;51.600;7.310;2022-12-26T06:43:52;9.40;99.90
14053;DHT22;7101;51.600;7.310;2022-12-26T06:46:21;9.40;99.90
14053;DHT22;7101;51.600;7.310;2022-12-26T06:48:49;9.40;99.90
14053;DHT22;7101;51.600;7.310;2022-12-26T06:51:19;9.40;99.90
14053;DHT22;7101;51.600;7.310;2022-12-26T06:53:46;9.40;99.90
14053;DHT22;7101;51.600;7.310;2022-12-26T06:56:17;9.30;99.90
14053;DHT22;7101;51.600;7.310;2022-12-26T06:58:44;9.30;99.90
14053;DHT22;7101;51.600;7.310;2022-12-26T07:01:13;9.30;99.90
14053;DHT22;7101;51.600;7.310;2022-12-26T07:03:42;9.30;99.90
14053;DHT22;7101;51.600;7.310;2022-12-26T07:06:12;9.30;99.90
14053;DHT22;7101;51.600;7.310;2022-12-26T07:08:43;9.30;99.90
14053;DHT22;7101;51.600;7.310;2022-12-26T07:11:12;9.40;99.90
14053;DHT22;7101;51.600;7.310;2022-12-26T07:13:40;9.40;99.90
14053;DHT22;7101;51.600;7.310;2022-12-26T07:16:07;9.40;99.90
14053;DHT22;7101;51.600;7.310;2022-12-26T07:18:35;9.40;99.90
14053;DHT22;7101;51.600;7.310;2022-12-26T07:21:04;9.40;99.90
14053;DHT22;7101;51.600;7.310;2022-12-26T07:23:30;9.40;99.90
14053;DHT22;7101;51.600;7.310;2022-12-26T07:25:57;9.50;99.90
14053;DHT22;7101;51.600;7.310;2022-12-26T07:28:24;9.50;99.90
14053;DHT22;7101;51.600;7.310;2022-12-26T07:30:53;9.50;99.90
14053;DHT22;7101;51.600;7.310;2022-12-26T07:33:19;9.60;99.90
14053;DHT22;7101;51.600;7.310;2022-12-26T07:35:46;9.60;99.90
14053;DHT22;7101;51.600;7.310;2022-12-26T07:38:13;9.70;99.90
14053;DHT22;7101;51.600;7.310;2022-12-26T07:40:40;9.60;99.90
14053;DHT22;7101;51.600;7.310;2022-12-26T07:43:07;9.60;99.90
14053;DHT22;7101;51.600;7.310;2022-12-26T07:45:33;9.60;99.90
14053;DHT22;7101;51.600;7.310;2022-12-26T07:48:02;9.70;99.90
14053;DHT22;7101;51.600;7.310;2022-12-26T07:52:50;9.80;99.90
14053;DHT22;7101;51.600;7.310;2022-12-26T07:55:17;9.80;99.90
14053;DHT22;7101;51.600;7.310;2022-12-26T07:57:44;9.80;99.90
14053;DHT22;7101;51.600;7.310;2022-12-26T08:00:11;9.80;99.90
14053;DHT22;7101;51.600;7.310;2022-12-26T08:02:38;9.80;99.90
14053;DHT22;7101;51.600;7.310;2022-12-26T08:05:05;9.80;99.90
14053;DHT22;7101;51.600;7.310;2022-12-26T08:07:32;9.80;99.90
14053;DHT22;7101;51.600;7.310;2022-12-26T08:10:00;9.80;99.90
14053;DHT22;7101;51.600;7.310;2022-12-26T08:12:27;9.90;99.90
14053;DHT22;7101;51.600;7.310;2022-12-26T08:14:54;9.90;99.90
14053;DHT22;7101;51.600;7.310;2022-12-26T08:17:20;9.90;99.90
14053;DHT22;7101;51.600;7.310;2022-12-26T08:19:47;9.90;99.90
14053;DHT22;7101;51.600;7.310;2022-12-26T08:22:14;10.00;99.90
14053;DHT22;7101;51.600;7.310;2022-12-26T08:24:41;10.00;99.90
14053;DHT22;7101;51.600;7.310;2022-12-26T08:27:09;10.10;99.90
14053;DHT22;7101;51.600;7.310;2022-12-26T08:29:36;10.10;99.90
14053;DHT22;7101;51.600;7.310;2022-12-26T08:32:04;10.10;99.90
14053;DHT22;7101;51.600;7.310;2022-12-26T08:34:31;10.10;99.90
14053;DHT22;7101;51.600;7.310;2022-12-26T08:36:59;10.20;99.90
14053;DHT22;7101;51.600;7.310;2022-12-26T08:39:26;10.20;99.90
14053;DHT22;7101;51.600;7.310;2022-12-26T08:41:53;10.20;99.90
14053;DHT22;7101;51.600;7.310;2022-12-26T08:44:22;10.30;99.90
14053;DHT22;7101;51.600;7.310;2022-12-26T08:46:48;10.30;99.90
14053;DHT22;7101;51.600;7.310;2022-12-26T08:49:15;10.30;99.90
14053;DHT22;7101;51.600;7.310;2022-12-26T08:51:42;10.30;99.90
14053;DHT22;7101;51.600;7.310;2022-12-26T08:54:09;10.30;99.90
14053;DHT22;7101;51.600;7.310;2022-12-26T08:56:35;10.30;99.90
14053;DHT22;7101;51.600;7.310;2022-12-26T08:59:02;10.30;99.90
14053;DHT22;7101;51.600;7.310;2022-12-26T09:01:30;10.20;99.90
14053;DHT22;7101;51.600;7.310;2022-12-26T09:03:59;10.30;99.90
14053;DHT22;7101;51.600;7.310;2022-12-26T09:06:26;10.30;99.90
14053;DHT22;7101;51.600;7.310;2022-12-26T09:08:53;10.30;99.90
14053;DHT22;7101;51.600;7.310;2022-12-26T09:11:22;10.40;99.90
14053;DHT22;7101;51.600;7.310;2022-12-26T09:13:51;10.40;99.90
14053;DHT22;7101;51.600;7.310;2022-12-26T09:16:20;10.40;99.90
14053;DHT22;7101;51.600;7.310;2022-12-26T09:18:53;10.40;99.90
14053;DHT22;7101;51.600;7.310;2022-12-26T09:21:20;10.40;99.90
14053;DHT22;7101;51.600;7.310;2022-12-26T09:23:46;10.40;99.90
14053;DHT22;7101;51.600;7.310;2022-12-26T09:26:15;10.40;99.90
14053;DHT22;7101;51.600;7.310;2022-12-26T09:28:42;10.50;99.90
14053;DHT22;7101;51.600;7.310;2022-12-26T09:31:11;10.60;99.90
14053;DHT22;7101;51.600;7.310;2022-12-26T09:33:39;10.60;99.90
14053;DHT22;7101;51.600;7.310;2022-12-26T09:36:09;10.60;99.90
14053;DHT22;7101;51.600;7.310;2022-12-26T09:38:36;10.70;99.90
14053;DHT22;7101;51.600;7.310;2022-12-26T09:41:16;10.80;99.90
14053;DHT22;7101;51.600;7.310;2022-12-26T09:43:52;10.70;99.90
14053;DHT22;7101;51.600;7.310;2022-12-26T09:46:31;10.50;99.90
14053;DHT22;7101;51.600;7.310;2022-12-26T09:49:03;10.60;99.90
14053;DHT22;7101;51.600;7.310;2022-12-26T09:51:33;10.70;99.90
14053;DHT22;7101;51.600;7.310;2022-12-26T09:54:04;10.80;99.90
14053;DHT22;7101;51.600;7.310;2022-12-26T09:56:32;10.80;99.90
14053;DHT22;7101;51.600;7.310;2022-12-26T09:59:06;10.90;99.90
14053;DHT22;7101;51.600;7.310;2022-12-26T10:01:34;11.00;99.90
14053;DHT22;7101;51.600;7.310;2022-12-26T10:04:08;11.00;99.90
14053;DHT22;7101;51.600;7.310;2022-12-26T10:06:38;11.00;99.90
14053;DHT22;7101;51.600;7.310;2022-12-26T10:09:25;11.10;99.90
14053;DHT22;7101;51.600;7.310;2022-12-26T10:12:12;11.10;99.90
14053;DHT22;7101;51.600;7.310;2022-12-26T10:14:49;11.00;99.90
14053;DHT22;7101;51.600;7.310;2022-12-26T10:17:23;11.00;99.90
14053;DHT22;7101;51.600;7.310;2022-12-26T10:20:05;10.90;99.90
14053;DHT22;7101;51.600;7.310;2022-12-26T10:22:58;10.90;99.90
14053;DHT22;7101;51.600;7.310;2022-12-26T10:25:35;11.00;99.90
14053;DHT22;7101;51.600;7.310;2022-12-26T10:28:05;11.00;99.90
14053;DHT22;7101;51.600;7.310;2022-12-26T10:30:38;10.80;99.90
14053;DHT22;7101;51.600;7.310;2022-12-26T10:33:12;10.80;99.90
14053;DHT22;7101;51.600;7.310;2022-12-26T10:35:42;10.80;99.90
14053;DHT22;7101;51.600;7.310;2022-12-26T10:38:14;10.70;99.90
14053;DHT22;7101;51.600;7.310;2022-12-26T10:40:43;10.80;99.90
14053;DHT22;7101;51.600;7.310;2022-12-26T10:43:23;10.80;99.90
14053;DHT22;7101;51.600;7.310;2022-12-26T10:48:46;10.90;99.90
14053;DHT22;7101;51.600;7.310;2022-12-26T10:51:13;10.90;99.90
14053;DHT22;7101;51.600;7.310;2022-12-26T10:53:46;10.90;99.90
14053;DHT22;7101;51.600;7.310;2022-12-26T10:56:13;11.00;99.90
14053;DHT22;7101;51.600;7.310;2022-12-26T10:58:43;11.00;99.90
14053;DHT22;7101;51.600;7.310;2022-12-26T11:01:33;10.90;99.90
14053;DHT22;7101;51.600;7.310;2022-12-26T11:04:02;10.90;99.90
14053;DHT22;7101;51.600;7.310;2022-12-26T11:06:32;10.90;99.90
14053;DHT22;7101;51.600;7.310;2022-12-26T11:09:04;10.90;99.90
14053;DHT22;7101;51.600;7.310;2022-12-26T11:11:32;10.90;99.90
14053;DHT22;7101;51.600;7.310;2022-12-26T11:14:30;10.90;99.90
14053;DHT22;7101;51.600;7.310;2022-12-26T11:17:04;10.80;99.90
14053;DHT22;7101;51.600;7.310;2022-12-26T11:19:33;10.80;1.00
14053;DHT22;7101;51.600;7.310;2022-12-26T11:22:24;10.70;1.00
14053;DHT22;7101;51.600;7.310;2022-12-26T11:25:15;10.70;1.00
14053;DHT22;7101;51.600;7.310;2022-12-26T11:27:45;10.60;1.00
14053;DHT22;7101;51.600;7.310;2022-12-26T11:30:27;10.60;1.00
14053;DHT22;7101;51.600;7.310;2022-12-26T11:33:14;10.60;1.00
14053;DHT22;7101;51.600;7.310;2022-12-26T11:35:50;10.60;1.00
14053;DHT22;7101;51.600;7.310;2022-12-26T11:38:19;10.60;1.00
14053;DHT22;7101;51.600;7.310;2022-12-26T11:41:07;10.80;1.00
14053;DHT22;7101;51.600;7.310;2022-12-26T11:43:52;11.00;1.00
14053;DHT22;7101;51.600;7.310;2022-12-26T11:46:20;11.00;1.00
14053;DHT22;7101;51.600;7.310;2022-12-26T11:48:50;11.00;1.00
14053;DHT22;7101;51.600;7.310;2022-12-26T11:51:35;10.90;1.00
14053;DHT22;7101;51.600;7.310;2022-12-26T11:54:19;10.90;99.90
14053;DHT22;7101;51.600;7.310;2022-12-26T11:56:48;10.90;99.90
14053;DHT22;7101;51.600;7.310;2022-12-26T11:59:18;10.90;99.90
14053;DHT22;7101;51.600;7.310;2022-12-26T12:01:45;10.80;99.90
14053;DHT22;7101;51.600;7.310;2022-12-26T12:04:12;10.80;99.90
14053;DHT22;7101;51.600;7.310;2022-12-26T12:06:52;10.80;99.90
14053;DHT22;7101;51.600;7.310;2022-12-26T12:09:30;10.80;99.90
14053;DHT22;7101;51.600;7.310;2022-12-26T12:12:06;10.80;99.90
14053;DHT22;7101;51.600;7.310;2022-12-26T12:14:48;10.80;99.90
14053;DHT22;7101;51.600;7.310;2022-12-26T12:17:22;10.90;99.90
14053;DHT22;7101;51.600;7.310;2022-12-26T12:20:08;10.80;99.90
14053;DHT22;7101;51.600;7.310;2022-12-26T12:22:52;10.90;99.90
14053;DHT22;7101;51.600;7.310;2022-12-26T12:29:00;11.10;99.90
14053;DHT22;7101;51.600;7.310;2022-12-26T12:31:38;11.30;99.90
14053;DHT22;7101;51.600;7.310;2022-12-26T12:34:16;11.30;99.90
14053;DHT22;7101;51.600;7.310;2022-12-26T12:36:52;11.40;99.90
14053;DHT22;7101;51.600;7.310;2022-12-26T12:39:35;11.60;99.90
14053;DHT22;7101;51.600;7.310;2022-12-26T12:42:19;11.50;99.90
14053;DHT22;7101;51.600;7.310;2022-12-26T12:45:12;11.30;99.90
14053;DHT22;7101;51.600;7.310;2022-12-26T12:47:49;10.80;99.90
14053;DHT22;7101;51.600;7.310;2022-12-26T12:50:26;10.10;1.00
14053;DHT22;7101;51.600;7.310;2022-12-26T12:52:59;9.50;99.90
14053;DHT22;7101;51.600;7.310;2022-12-26T12:55:58;9.30;99.90
14053;DHT22;7101;51.600;7.310;2022-12-26T12:58:33;9.00;99.90
14053;DHT22;7101;51.600;7.310;2022-12-26T13:01:05;9.00;99.90
14053;DHT22;7101;51.600;7.310;2022-12-26T13:03:37;8.90;99.90
14053;DHT22;7101;51.600;7.310;2022-12-26T13:06:09;8.90;99.90
14053;DHT22;7101;51.600;7.310;2022-12-26T13:08:39;8.80;99.90
14053;DHT22;7101;51.600;7.310;2022-12-26T13:11:12;8.80;99.90
14053;DHT22;7101;51.600;7.310;2022-12-26T13:13:43;8.80;99.90
14053;DHT22;7101;51.600;7.310;2022-12-26T13:16:16;8.90;99.90
14053;DHT22;7101;51.600;7.310;2022-12-26T13:18:48;8.80;99.90
14053;DHT22;7101;51.600;7.310;2022-12-26T13:21:17;9.00;99.90
14053;DHT22;7101;51.600;7.310;2022-12-26T13:23:47;8.90;99.90
14053;DHT22;7101;51.600;7.310;2022-12-26T13:26:36;8.90;99.90
14053;DHT22;7101;51.600;7.310;2022-12-26T13:29:10;8.80;99.90
14053;DHT22;7101;51.600;7.310;2022-12-26T13:31:40;8.90;99.90
14053;DHT22;7101;51.600;7.310;2022-12-26T13:34:08;8.80;99.90
14053;DHT22;7101;51.600;7.310;2022-12-26T13:36:39;8.90;99.90
14053;DHT22;7101;51.600;7.310;2022-12-26T13:42:04;8.80;99.90
14053;DHT22;7101;51.600;7.310;2022-12-26T13:48:56;8.90;99.90
14053;DHT22;7101;51.600;7.310;2022-12-26T13:51:46;8.80;99.90
14053;DHT22;7101;51.600;7.310;2022-12-26T13:54:15;8.70;99.90
14053;DHT22;7101;51.600;7.310;2022-12-26T13:57:06;8.60;99.90
14053;DHT22;7101;51.600;7.310;2022-12-26T13:59:39;8.60;33.90
14053;DHT22;7101;51.600;7.310;2022-12-26T14:02:23;8.40;1.00
14053;DHT22;7101;51.600;7.310;2022-12-26T14:05:01;8.30;99.90
14053;DHT22;7101;51.600;7.310;2022-12-26T14:07:38;8.30;99.90
14053;DHT22;7101;51.600;7.310;2022-12-26T14:10:13;8.30;1.00
14053;DHT22;7101;51.600;7.310;2022-12-26T14:12:52;8.10;99.90
14053;DHT22;7101;51.600;7.310;2022-12-26T14:15:29;8.00;99.90
14053;DHT22;7101;51.600;7.310;2022-12-26T14:18:08;8.00;99.90
14053;DHT22;7101;51.600;7.310;2022-12-26T14:20:45;7.90;7.10
14053;DHT22;7101;51.600;7.310;2022-12-26T14:23:27;7.80;1.00
14053;DHT22;7101;51.600;7.310;2022-12-26T14:26:02;7.70;1.00
14053;DHT22;7101;51.600;7.310;2022-12-26T14:28:35;7.70;1.00
14053;DHT22;7101;51.600;7.310;2022-12-26T14:31:15;7.70;99.90
14053;DHT22;7101;51.600;7.310;2022-12-26T14:33:49;7.70;99.90
14053;DHT22;7101;51.600;7.310;2022-12-26T14:36:35;7.70;99.90
14053;DHT22;7101;51.600;7.310;2022-12-26T14:39:15;7.70;99.90
14053;DHT22;7101;51.600;7.310;2022-12-26T14:42:16;7.60;99.90
14053;DHT22;7101;51.600;7.310;2022-12-26T14:45:02;7.50;94.40
14053;DHT22;7101;51.600;7.310;2022-12-26T14:47:38;7.50;99.90
14053;DHT22;7101;51.600;7.310;2022-12-26T14:50:36;7.40;19.00
14053;DHT22;7101;51.600;7.310;2022-12-26T14:53:31;7.30;99.90
14053;DHT22;7101;51.600;7.310;2022-12-26T14:55:59;7.30;99.90
14053;DHT22;7101;51.600;7.310;2022-12-26T14:58:39;7.30;99.90
14053;DHT22;7101;51.600;7.310;2022-12-26T15:01:42;7.30;99.90
14053;DHT22;7101;51.600;7.310;2022-12-26T15:04:34;7.40;99.90
14053;DHT22;7101;51.600;7.310;2022-12-26T15:07:33;7.40;1.00
14053;DHT22;7101;51.600;7.310;2022-12-26T15:10:51;7.40;1.00
14053;DHT22;7101;51.600;7.310;2022-12-26T15:13:53;7.40;1.00
14053;DHT22;7101;51.600;7.310;2022-12-26T15:16:44;7.40;1.00
14053;DHT22;7101;51.600;7.310;2022-12-26T15:19:35;7.40;1.00
14053;DHT22;7101;51.600;7.310;2022-12-26T15:22:36;7.30;1.00
14053;DHT22;7101;51.600;7.310;2022-12-26T15:31:36;7.30;1.00
14053;DHT22;7101;51.600;7.310;2022-12-26T15:34:20;7.10;1.00
14053;DHT22;7101;51.600;7.310;2022-12-26T15:36:55;7.10;1.00
14053;DHT22;7101;51.600;7.310;2022-12-26T15:39:30;7.00;1.00
14053;DHT22;7101;51.600;7.310;2022-12-26T15:42:14;7.10;1.00
14053;DHT22;7101;51.600;7.310;2022-12-26T15:44:47;7.00;1.00
14053;DHT22;7101;51.600;7.310;2022-12-26T15:47:19;7.10;1.00
14053;DHT22;7101;51.600;7.310;2022-12-26T15:49:59;7.00;1.00
14053;DHT22;7101;51.600;7.310;2022-12-26T15:52:36;7.00;1.00
14053;DHT22;7101;51.600;7.310;2022-12-26T15:55:25;7.00;1.00
14053;DHT22;7101;51.600;7.310;2022-12-26T15:57:58;6.80;1.00
14053;DHT22;7101;51.600;7.310;2022-12-26T16:00:29;6.80;1.00
14053;DHT22;7101;51.600;7.310;2022-12-26T16:03:19;6.70;1.00
14053;DHT22;7101;51.600;7.310;2022-12-26T16:05:52;6.60;99.90
14053;DHT22;7101;51.600;7.310;2022-12-26T16:08:57;6.40;31.40
14053;DHT22;7101;51.600;7.310;2022-12-26T16:11:29;6.30;72.70
14053;DHT22;7101;51.600;7.310;2022-12-26T16:13:59;6.20;50.40
14053;DHT22;7101;51.600;7.310;2022-12-26T16:16:32;6.20;71.00
14053;DHT22;7101;51.600;7.310;2022-12-26T16:19:16;6.10;99.90
14053;DHT22;7101;51.600;7.310;2022-12-26T16:21:46;6.10;99.90
14053;DHT22;7101;51.600;7.310;2022-12-26T16:24:32;6.10;99.90
14053;DHT22;7101;51.600;7.310;2022-12-26T16:27:01;5.90;99.90
14053;DHT22;7101;51.600;7.310;2022-12-26T16:29:30;5.90;99.90
14053;DHT22;7101;51.600;7.310;2022-12-26T16:32:02;5.90;99.90
14053;DHT22;7101;51.600;7.310;2022-12-26T16:34:33;5.90;99.90
14053;DHT22;7101;51.600;7.310;2022-12-26T16:37:01;6.00;99.90
14053;DHT22;7101;51.600;7.310;2022-12-26T16:39:28;6.00;99.90
14053;DHT22;7101;51.600;7.310;2022-12-26T16:41:58;6.10;99.90
14053;DHT22;7101;51.600;7.310;2022-12-26T16:44:39;6.20;99.90
14053;DHT22;7101;51.600;7.310;2022-12-26T16:47:10;6.20;99.90
14053;DHT22;7101;51.600;7.310;2022-12-26T16:49:39;6.20;1.00
14053;DHT22;7101;51.600;7.310;2022-12-26T16:52:29;6.20;1.00
14053;DHT22;7101;51.600;7.310;2022-12-26T16:57:40;6.30;16.40
14053;DHT22;7101;51.600;7.310;2022-12-26T17:00:16;6.30;21.90
14053;DHT22;7101;51.600;7.310;2022-12-26T17:02:46;6.20;29.40
14053;DHT22;7101;51.600;7.310;2022-12-26T17:05:19;6.30;1.00
14053;DHT22;7101;51.600;7.310;2022-12-26T17:07:48;6.30;1.00
14053;DHT22;7101;51.600;7.310;2022-12-26T17:10:21;6.20;1.00
14053;DHT22;7101;51.600;7.310;2022-12-26T17:12:48;6.20;99.90
14053;DHT22;7101;51.600;7.310;2022-12-26T17:15:23;6.20;99.90